Wetterstation Vordersexau
Wetterdaten: Woche 12.09.11 - 18.09.11 (KW37)
Datum Zeit Temp. A. Feuchte A. Luftdruck Regen Wind Richtung Taupunkt Windchill Windben
12.09.2011 00:00 16,7 C 83 % 1013,6 hPa 0,0 l/m 0,0 km/h S-SO 13,8 C 16,7 C 0,0 km/h
12.09.2011 01:00 16,4 C 83 % 1013,8 hPa 0,0 l/m 0,0 km/h W 13,5 C 16,4 C 0,0 km/h
12.09.2011 02:00 16,1 C 83 % 1014,3 hPa 0,0 l/m 3,9 km/h NO 13,2 C 16,1 C 2,2 km/h
12.09.2011 03:00 15,6 C 84 % 1014,4 hPa 0,0 l/m 0,0 km/h N-NO 12,9 C 15,6 C 0,0 km/h
12.09.2011 04:00 14,4 C 84 % 1014,8 hPa 0,0 l/m 0,0 km/h W 11,7 C 14,4 C 0,0 km/h
12.09.2011 05:00 13,3 C 83 % 1015,7 hPa 0,0 l/m 0,0 km/h S 10,5 C 13,3 C 0,0 km/h
12.09.2011 06:00 12,4 C 83 % 1015,8 hPa 0,0 l/m 0,0 km/h N-NO 9,6 C 12,4 C 0,0 km/h
12.09.2011 07:00 12,5 C 82 % 1016,4 hPa 0,0 l/m 0,0 km/h W 9,5 C 12,5 C 0,0 km/h
12.09.2011 08:00 13,9 C 79 % 1016,9 hPa 0,0 l/m 0,0 km/h W-SW 10,3 C 13,9 C 0,0 km/h
12.09.2011 09:00 18,1 C 76 % 1016,9 hPa 0,0 l/m 23,3 km/h SW 13,8 C 13,1 C 13,0 km/h
12.09.2011 10:00 21,4 C 65 % 1017,3 hPa 0,0 l/m 18,1 km/h SW 14,5 C 18,3 C 10,1 km/h
12.09.2011 11:00 23,8 C 58 % 1017,2 hPa 0,0 l/m 24,6 km/h W-SW 15,0 C 20,6 C 13,7 km/h
12.09.2011 12:00 23,5 C 55 % 1016,7 hPa 0,0 l/m 29,2 km/h W 13,9 C 19,7 C 16,2 km/h
12.09.2011 13:00 23,8 C 53 % 1015,9 hPa 0,0 l/m 17,5 km/h W 13,6 C 21,5 C 9,7 km/h
12.09.2011 14:00 25,2 C 46 % 1015,4 hPa 0,0 l/m 22,0 km/h W 12,7 C 22,7 C 12,2 km/h
12.09.2011 15:00 27,3 C 42 % 1015,1 hPa 0,0 l/m 9,7 km/h W-NW 13,2 C 26,7 C 5,4 km/h
12.09.2011 16:00 28,5 C 40 % 1014,6 hPa 0,0 l/m 22,0 km/h W 13,6 C 27,1 C 12,2 km/h
12.09.2011 17:00 28,3 C 40 % 1014,4 hPa 0,0 l/m 17,5 km/h W 13,4 C 27,1 C 9,7 km/h
12.09.2011 18:00 27,1 C 42 % 1014,2 hPa 0,0 l/m 21,4 km/h SW 13,1 C 25,3 C 11,9 km/h
12.09.2011 19:00 22,9 C 51 % 1014,4 hPa 0,0 l/m 4,5 km/h W-SW 12,2 C 22,9 C 2,5 km/h
12.09.2011 20:00 19,3 C 63 % 1015,2 hPa 0,0 l/m 20,7 km/h W 12,1 C 15,2 C 11,5 km/h
12.09.2011 21:00 20,6 C 60 % 1015,5 hPa 0,0 l/m 25,3 km/h W-SW 12,6 C 16,2 C 14,0 km/h
12.09.2011 22:00 20,6 C 60 % 1015,6 hPa 0,0 l/m 9,7 km/h W 12,6 C 19,4 C 5,4 km/h
12.09.2011 23:00 19,7 C 63 % 1015,8 hPa 0,0 l/m 16,8 km/h S-SW 12,5 C 16,5 C 9,4 km/h
13.09.2011 00:00 19,1 C 67 % 1015,6 hPa 0,0 l/m 1,3 km/h S-SW 12,8 C 19,1 C 0,7 km/h
13.09.2011 01:00 19,3 C 68 % 1015,5 hPa 0,0 l/m 25,3 km/h S-SW 13,2 C 14,4 C 14,0 km/h
13.09.2011 02:00 18,5 C 71 % 1015,2 hPa 0,0 l/m 0,0 km/h SW 13,1 C 18,5 C 0,0 km/h
13.09.2011 03:00 19,3 C 71 % 1015,1 hPa 0,0 l/m 8,4 km/h S 13,9 C 18,5 C 4,7 km/h
13.09.2011 04:00 19,8 C 72 % 1014,8 hPa 0,0 l/m 20,1 km/h W 14,6 C 15,9 C 11,2 km/h
13.09.2011 05:00 18,9 C 74 % 1014,9 hPa 0,0 l/m 20,7 km/h W-SW 14,2 C 14,6 C 11,5 km/h
13.09.2011 06:00 18,4 C 75 % 1014,9 hPa 0,0 l/m 3,2 km/h W-SW 13,9 C 18,4 C 1,8 km/h
13.09.2011 07:00 18,3 C 75 % 1015,1 hPa 0,0 l/m 5,8 km/h S-SW 13,8 C 18,3 C 3,2 km/h
13.09.2011 08:00 19,1 C 76 % 1014,9 hPa 0,0 l/m 9,7 km/h W-SW 14,8 C 17,8 C 5,4 km/h
13.09.2011 09:00 20,9 C 72 % 1015,0 hPa 0,0 l/m 19,4 km/h W-SW 15,7 C 17,5 C 10,8 km/h
13.09.2011 10:00 23,4 C 67 % 1014,7 hPa 0,0 l/m 22,7 km/h W 16,9 C 20,3 C 12,6 km/h
13.09.2011 11:00 25,2 C 59 % 1014,4 hPa 0,0 l/m 23,3 km/h W 16,6 C 22,6 C 13,0 km/h
13.09.2011 12:00 23,9 C 62 % 1014,4 hPa 0,0 l/m 24,0 km/h W 16,2 C 20,8 C 13,3 km/h
13.09.2011 13:00 24,4 C 63 % 1014,4 hPa 0,0 l/m 29,2 km/h SW 16,9 C 21,0 C 16,2 km/h
13.09.2011 14:00 24,3 C 63 % 1014,3 hPa 0,0 l/m 29,2 km/h W-SW 16,8 C 20,8 C 16,2 km/h
13.09.2011 15:00 25,4 C 61 % 1014,1 hPa 0,0 l/m 36,3 km/h W-SW 17,3 C 21,9 C 20,2 km/h
13.09.2011 16:00 25,3 C 59 % 1013,9 hPa 0,0 l/m 19,4 km/h S-SW 16,7 C 23,1 C 10,8 km/h
13.09.2011 17:00 23,9 C 63 % 1013,7 hPa 0,0 l/m 14,9 km/h W 16,4 C 22,0 C 8,3 km/h
13.09.2011 18:00 22,3 C 65 % 1013,9 hPa 0,0 l/m 27,9 km/h W-SW 15,4 C 18,2 C 15,5 km/h
13.09.2011 19:00 21,4 C 68 % 1014,0 hPa 0,0 l/m 15,6 km/h W 15,2 C 18,8 C 8,6 km/h
13.09.2011 20:00 20,9 C 70 % 1014,2 hPa 0,0 l/m 5,8 km/h W-SW 15,2 C 20,9 C 3,2 km/h
13.09.2011 21:00 20,5 C 73 % 1014,7 hPa 0,0 l/m 11,7 km/h W 15,5 C 18,7 C 6,5 km/h
13.09.2011 22:00 20,4 C 74 % 1014,7 hPa 0,0 l/m 16,8 km/h SO 15,6 C 17,3 C 9,4 km/h
13.09.2011 23:00 19,2 C 79 % 1014,5 hPa 0,0 l/m 0,0 km/h NO 15,5 C 19,2 C 0,0 km/h
14.09.2011 00:00 18,8 C 81 % 1014,6 hPa 0,0 l/m 0,0 km/h NO 15,5 C 18,8 C 0,0 km/h
14.09.2011 01:00 18,3 C 82 % 1014,5 hPa 0,0 l/m 1,9 km/h N-NO 15,2 C 18,3 C 1,1 km/h
14.09.2011 02:00 17,1 C 82 % 1014,5 hPa 0,4 l/m 0,0 km/h N-NO 14,0 C 17,1 C 0,0 km/h
14.09.2011 03:00 16,9 C 83 % 1015,1 hPa 0,0 l/m 22,0 km/h N-NO 14,0 C 11,8 C 12,2 km/h
14.09.2011 04:00 15,2 C 84 % 1015,9 hPa 0,7 l/m 0,0 km/h NO 12,5 C 15,2 C 0,0 km/h
14.09.2011 05:00 14,6 C 83 % 1016,3 hPa 0,7 l/m 0,0 km/h NO 11,7 C 14,6 C 0,0 km/h
14.09.2011 06:00 14,7 C 83 % 1017,0 hPa 0,0 l/m 0,0 km/h N-NO 11,8 C 14,7 C 0,0 km/h
14.09.2011 07:00 14,8 C 83 % 1017,7 hPa 0,0 l/m 0,0 km/h SO 11,9 C 14,8 C 0,0 km/h
14.09.2011 08:00 15,4 C 84 % 1018,0 hPa 0,0 l/m 0,0 km/h N-NO 12,7 C 15,4 C 0,0 km/h
14.09.2011 09:00 19,6 C 72 % 1018,3 hPa 0,0 l/m 0,0 km/h N-NO 14,4 C 19,6 C 0,0 km/h
14.09.2011 10:00 22,3 C 59 % 1018,9 hPa 0,0 l/m 0,0 km/h W-SW 13,9 C 22,3 C 0,0 km/h
14.09.2011 11:00 24,1 C 51 % 1019,0 hPa 0,0 l/m 7,1 km/h N-NO 13,3 C 23,9 C 4,0 km/h
14.09.2011 12:00 24,9 C 48 % 1019,1 hPa 0,0 l/m 0,0 km/h N-NO 13,1 C 24,9 C 0,0 km/h
14.09.2011 13:00 24,9 C 45 % 1018,6 hPa 0,0 l/m 16,8 km/h W 12,1 C 22,9 C 9,4 km/h
14.09.2011 14:00 24,1 C 46 % 1018,2 hPa 0,0 l/m 8,4 km/h N-NW 11,7 C 23,6 C 4,7 km/h
14.09.2011 15:00 27,9 C 38 % 1017,8 hPa 0,0 l/m 2,6 km/h W-NW 12,2 C 27,9 C 1,4 km/h
14.09.2011 16:00 28,5 C 37 % 1017,5 hPa 0,0 l/m 5,2 km/h N-NO 12,4 C 28,5 C 2,9 km/h
14.09.2011 17:00 30,8 C 33 % 1017,2 hPa 0,0 l/m 0,0 km/h N 12,6 C 30,8 C 0,0 km/h
14.09.2011 18:00 27,4 C 37 % 1017,2 hPa 0,0 l/m 0,0 km/h N-NO 11,4 C 27,4 C 0,0 km/h
14.09.2011 19:00 19,1 C 52 % 1017,4 hPa 0,0 l/m 0,0 km/h S-SO 9,0 C 19,1 C 0,0 km/h
14.09.2011 20:00 14,9 C 72 % 1018,0 hPa 0,0 l/m 0,0 km/h NO 9,9 C 14,9 C 0,0 km/h
14.09.2011 21:00 13,6 C 76 % 1018,7 hPa 0,0 l/m 0,0 km/h SO 9,4 C 13,6 C 0,0 km/h
14.09.2011 22:00 12,1 C 80 % 1018,7 hPa 0,0 l/m 0,0 km/h SO 8,8 C 12,1 C 0,0 km/h
14.09.2011 23:00 10,9 C 83 % 1018,8 hPa 0,0 l/m 0,0 km/h SO 8,1 C 10,9 C 0,0 km/h
15.09.2011 00:00 10,1 C 83 % 1019,0 hPa 0,0 l/m 0,0 km/h SO 7,3 C 10,1 C 0,0 km/h
15.09.2011 01:00 9,9 C 84 % 1019,0 hPa 0,0 l/m 3,2 km/h SO 7,3 C 9,9 C 1,8 km/h
15.09.2011 02:00 9,3 C 84 % 1019,1 hPa 0,0 l/m 0,0 km/h O-SO 6,7 C 9,3 C 0,0 km/h
15.09.2011 03:00 9,3 C 84 % 1018,9 hPa 0,0 l/m 0,0 km/h SO 6,7 C 9,3 C 0,0 km/h
15.09.2011 04:00 8,8 C 84 % 1018,8 hPa 0,0 l/m 0,0 km/h SO 6,2 C 8,8 C 0,0 km/h
15.09.2011 05:00 8,6 C 84 % 1018,7 hPa 0,0 l/m 1,9 km/h NO 6,1 C 8,6 C 1,1 km/h
15.09.2011 06:00 9,4 C 84 % 1018,4 hPa 0,0 l/m 0,0 km/h NO 6,8 C 9,4 C 0,0 km/h
15.09.2011 07:00 8,8 C 84 % 1018,4 hPa 0,0 l/m 0,0 km/h SO 6,2 C 8,8 C 0,0 km/h
15.09.2011 08:00 11,3 C 84 % 1018,7 hPa 0,0 l/m 0,0 km/h N-NO 8,7 C 11,3 C 0,0 km/h
15.09.2011 09:00 17,5 C 72 % 1018,9 hPa 0,0 l/m 0,0 km/h N-NW 12,4 C 17,5 C 0,0 km/h
15.09.2011 10:00 19,6 C 61 % 1019,1 hPa 0,0 l/m 1,9 km/h N-NW 11,9 C 19,6 C 1,1 km/h
15.09.2011 11:00 24,3 C 49 % 1019,0 hPa 0,0 l/m 0,0 km/h W 12,9 C 24,3 C 0,0 km/h
15.09.2011 12:00 25,4 C 45 % 1018,8 hPa 0,0 l/m 0,0 km/h W-NW 12,6 C 25,4 C 0,0 km/h
15.09.2011 13:00 24,9 C 45 % 1018,0 hPa 0,0 l/m 22,0 km/h NW 12,1 C 22,3 C 12,2 km/h
15.09.2011 14:00 25,2 C 44 % 1017,9 hPa 0,0 l/m 1,9 km/h N-NO 12,1 C 25,2 C 1,1 km/h
15.09.2011 15:00 27,2 C 40 % 1017,3 hPa 0,0 l/m 11,7 km/h N-NW 12,4 C 26,4 C 6,5 km/h
15.09.2011 16:00 28,4 C 37 % 1017,1 hPa 0,0 l/m 4,5 km/h N-NO 12,3 C 28,4 C 2,5 km/h
15.09.2011 17:00 26,1 C 41 % 1017,0 hPa 0,0 l/m 12,3 km/h NW 11,8 C 25,0 C 6,8 km/h
15.09.2011 18:00 24,7 C 45 % 1017,2 hPa 0,0 l/m 0,0 km/h NO 12,0 C 24,7 C 0,0 km/h
15.09.2011 19:00 18,8 C 55 % 1017,1 hPa 0,0 l/m 0,0 km/h O-NO 9,6 C 18,8 C 0,0 km/h
15.09.2011 20:00 14,4 C 71 % 1017,1 hPa 0,0 l/m 0,0 km/h O-NO 9,2 C 14,4 C 0,0 km/h
15.09.2011 21:00 13,3 C 78 % 1017,4 hPa 0,0 l/m 0,0 km/h O-SO 9,5 C 13,3 C 0,0 km/h
15.09.2011 22:00 12,2 C 81 % 1017,4 hPa 0,0 l/m 0,0 km/h O-NO 9,0 C 12,2 C 0,0 km/h
15.09.2011 23:00 10,8 C 83 % 1017,0 hPa 0,0 l/m 0,0 km/h O-NO 8,0 C 10,8 C 0,0 km/h
16.09.2011 00:00 10,2 C 84 % 1017,0 hPa 0,0 l/m 0,0 km/h O-NO 7,6 C 10,2 C 0,0 km/h
16.09.2011 01:00 9,3 C 84 % 1016,6 hPa 0,0 l/m 0,0 km/h NO 6,7 C 9,3 C 0,0 km/h
16.09.2011 02:00 8,6 C 84 % 1016,7 hPa 0,0 l/m 0,0 km/h NO 6,1 C 8,6 C 0,0 km/h
16.09.2011 03:00 8,4 C 84 % 1016,5 hPa 0,0 l/m 0,0 km/h NO 5,9 C 8,4 C 0,0 km/h
16.09.2011 04:00 8,0 C 84 % 1016,4 hPa 0,0 l/m 0,0 km/h NO 5,5 C 8,0 C 0,0 km/h
16.09.2011 05:00 7,9 C 84 % 1016,2 hPa 0,0 l/m 1,3 km/h NO 5,4 C 7,9 C 0,7 km/h
16.09.2011 06:00 7,6 C 83 % 1015,9 hPa 0,0 l/m 0,0 km/h NO 4,9 C 7,6 C 0,0 km/h
16.09.2011 07:00 7,2 C 84 % 1016,0 hPa 0,0 l/m 0,0 km/h N-NO 4,7 C 7,2 C 0,0 km/h
16.09.2011 08:00 9,4 C 82 % 1016,0 hPa 0,0 l/m 0,0 km/h W-NW 6,5 C 9,4 C 0,0 km/h
16.09.2011 09:00 16,1 C 79 % 1015,8 hPa 0,0 l/m 0,0 km/h W-NW 12,5 C 16,1 C 0,0 km/h
16.09.2011 10:00 20,1 C 66 % 1015,9 hPa 0,0 l/m 0,0 km/h N-NW 13,5 C 20,1 C 0,0 km/h
16.09.2011 11:00 25,4 C 50 % 1015,4 hPa 0,0 l/m 0,0 km/h S 14,2 C 25,4 C 0,0 km/h
16.09.2011 12:00 25,9 C 52 % 1015,0 hPa 0,0 l/m 0,0 km/h W-NW 15,3 C 25,9 C 0,0 km/h
16.09.2011 13:00 27,5 C 48 % 1014,7 hPa 0,0 l/m 6,5 km/h NO 15,5 C 27,5 C 3,6 km/h
16.09.2011 14:00 27,5 C 47 % 1014,3 hPa 0,0 l/m 5,8 km/h W-SW 15,2 C 27,5 C 3,2 km/h
16.09.2011 15:00 28,8 C 46 % 1014,0 hPa 0,0 l/m 0,0 km/h W-NW 16,0 C 28,8 C 0,0 km/h
16.09.2011 16:00 25,4 C 53 % 1013,5 hPa 0,0 l/m 0,0 km/h N-NO 15,1 C 25,4 C 0,0 km/h
16.09.2011 17:00 24,3 C 57 % 1013,5 hPa 0,0 l/m 0,0 km/h NO 15,2 C 24,3 C 0,0 km/h
16.09.2011 18:00 22,7 C 61 % 1014,0 hPa 0,0 l/m 0,0 km/h SO 14,8 C 22,7 C 0,0 km/h
16.09.2011 19:00 20,5 C 68 % 1014,0 hPa 0,0 l/m 0,0 km/h S-SO 14,4 C 20,5 C 0,0 km/h
16.09.2011 20:00 18,6 C 78 % 1013,6 hPa 0,0 l/m 0,0 km/h W-SW 14,7 C 18,6 C 0,0 km/h
16.09.2011 21:00 17,8 C 81 % 1014,5 hPa 0,0 l/m 0,0 km/h N-NO 14,5 C 17,8 C 0,0 km/h
16.09.2011 22:00 17,4 C 82 % 1014,0 hPa 0,0 l/m 0,0 km/h SO 14,3 C 17,4 C 0,0 km/h
16.09.2011 23:00 16,9 C 82 % 1014,3 hPa 0,0 l/m 0,0 km/h O 13,8 C 16,9 C 0,0 km/h
17.09.2011 00:00 16,4 C 83 % 1014,2 hPa 0,0 l/m 0,0 km/h O 13,5 C 16,4 C 0,0 km/h
17.09.2011 01:00 16,6 C 83 % 1014,0 hPa 0,0 l/m 0,0 km/h O-SO 13,7 C 16,6 C 0,0 km/h
17.09.2011 02:00 16,6 C 83 % 1013,4 hPa 0,0 l/m 0,0 km/h O-NO 13,7 C 16,6 C 0,0 km/h
17.09.2011 03:00 16,3 C 83 % 1013,6 hPa 0,0 l/m 0,0 km/h O-NO 13,4 C 16,3 C 0,0 km/h
17.09.2011 04:00 15,9 C 83 % 1013,2 hPa 0,0 l/m 0,0 km/h S-SO 13,0 C 15,9 C 0,0 km/h
17.09.2011 05:00 16,1 C 82 % 1013,2 hPa 1,1 l/m 7,1 km/h SO 13,0 C 15,7 C 4,0 km/h
17.09.2011 06:00 15,6 C 82 % 1013,1 hPa 0,0 l/m 0,0 km/h O-SO 12,5 C 15,6 C 0,0 km/h
17.09.2011 07:00 15,9 C 80 % 1012,9 hPa 0,0 l/m 0,0 km/h O-NO 12,5 C 15,9 C 0,0 km/h
17.09.2011 08:00 16,5 C 79 % 1012,8 hPa 0,0 l/m 0,0 km/h SO 12,8 C 16,5 C 0,0 km/h
17.09.2011 09:00 19,1 C 82 % 1012,6 hPa 0,0 l/m 0,0 km/h SO 16,0 C 19,1 C 0,0 km/h
17.09.2011 10:00 23,4 C 75 % 1012,4 hPa 0,0 l/m 0,0 km/h W-SW 18,7 C 23,4 C 0,0 km/h
17.09.2011 11:00 25,3 C 63 % 1012,4 hPa 0,0 l/m 0,0 km/h W-SW 17,7 C 25,3 C 0,0 km/h
17.09.2011 12:00 24,7 C 65 % 1012,0 hPa 0,0 l/m 3,2 km/h SW 17,7 C 24,7 C 1,8 km/h
17.09.2011 13:00 24,8 C 61 % 1011,7 hPa 0,0 l/m 3,2 km/h W 16,8 C 24,8 C 1,8 km/h
17.09.2011 14:00 27,5 C 52 % 1011,0 hPa 0,0 l/m 20,7 km/h W-SW 16,7 C 25,8 C 11,5 km/h
17.09.2011 15:00 28,7 C 49 % 1010,5 hPa 0,0 l/m 22,0 km/h W-SW 16,9 C 27,3 C 12,2 km/h
17.09.2011 16:00 22,2 C 66 % 1010,4 hPa 0,0 l/m 32,4 km/h SW 15,5 C 17,6 C 18,0 km/h
17.09.2011 17:00 19,6 C 79 % 1010,3 hPa 0,4 l/m 5,8 km/h SW 15,9 C 19,6 C 3,2 km/h
17.09.2011 18:00 19,9 C 78 % 1010,0 hPa 0,0 l/m 13,0 km/h S-SW 15,9 C 17,6 C 7,2 km/h
17.09.2011 19:00 19,4 C 79 % 1009,7 hPa 0,0 l/m 20,1 km/h S-SW 15,7 C 15,4 C 11,2 km/h
17.09.2011 20:00 18,8 C 80 % 1010,0 hPa 0,0 l/m 10,4 km/h W-SW 15,3 C 17,2 C 5,8 km/h
17.09.2011 21:00 18,3 C 80 % 1009,7 hPa 0,0 l/m 0,0 km/h W-NW 14,8 C 18,3 C 0,0 km/h
17.09.2011 22:00 17,6 C 80 % 1008,5 hPa 0,0 l/m 8,4 km/h W-SW 14,1 C 16,7 C 4,7 km/h
17.09.2011 23:00 17,6 C 80 % 1008,3 hPa 0,0 l/m 18,8 km/h W 14,1 C 13,4 C 10,4 km/h
18.09.2011 00:00 17,2 C 79 % 1008,1 hPa 0,0 l/m 11,7 km/h SW 13,5 C 14,9 C 6,5 km/h
18.09.2011 01:00 16,4 C 81 % 1007,7 hPa 0,0 l/m 9,7 km/h S-SW 13,1 C 14,8 C 5,4 km/h
18.09.2011 02:00 16,4 C 80 % 1006,9 hPa 0,0 l/m 3,9 km/h S 12,9 C 16,4 C 2,2 km/h
18.09.2011 03:00 16,3 C 77 % 1006,1 hPa 0,0 l/m 5,8 km/h S-SW 12,3 C 16,3 C 3,2 km/h
18.09.2011 04:00 16,1 C 76 % 1005,2 hPa 0,0 l/m 5,2 km/h W-SW 11,9 C 16,1 C 2,9 km/h
18.09.2011 05:00 16,6 C 76 % 1004,4 hPa 0,0 l/m 22,0 km/h W-SW 12,3 C 11,4 C 12,2 km/h
18.09.2011 06:00 15,6 C 80 % 1004,1 hPa 0,0 l/m 5,8 km/h SW 12,2 C 15,6 C 3,2 km/h
18.09.2011 07:00 13,8 C 83 % 1004,6 hPa 0,4 l/m 10,4 km/h SW 11,0 C 11,6 C 5,8 km/h
18.09.2011 08:00 12,1 C 83 % 1006,6 hPa 2,5 l/m 0,0 km/h W-SW 9,3 C 12,1 C 0,0 km/h
18.09.2011 09:00 11,3 C 84 % 1007,5 hPa 0,4 l/m 0,0 km/h S 8,7 C 11,3 C 0,0 km/h
18.09.2011 10:00 11,6 C 84 % 1007,0 hPa 0,4 l/m 16,2 km/h S-SW 9,0 C 6,6 C 9,0 km/h
18.09.2011 11:00 12,2 C 82 % 1007,9 hPa 0,4 l/m 6,5 km/h W-SW 9,2 C 12,2 C 3,6 km/h
18.09.2011 12:00 12,2 C 80 % 1007,5 hPa 0,0 l/m 0,0 km/h SW 8,9 C 12,2 C 0,0 km/h
18.09.2011 13:00 12,6 C 79 % 1008,0 hPa 0,0 l/m 18,1 km/h S-SW 9,1 C 7,2 C 10,1 km/h
18.09.2011 14:00 13,2 C 77 % 1008,2 hPa 0,0 l/m 16,8 km/h SW 9,3 C 8,4 C 9,4 km/h
18.09.2011 15:00 13,8 C 76 % 1008,3 hPa 0,0 l/m 17,5 km/h SW 9,6 C 8,9 C 9,7 km/h
18.09.2011 16:00 13,4 C 73 % 1008,0 hPa 0,0 l/m 25,3 km/h S-SW 8,7 C 6,4 C 14,0 km/h
18.09.2011 17:00 13,0 C 74 % 1008,2 hPa 0,0 l/m 0,0 km/h SW 8,5 C 13,0 C 0,0 km/h
18.09.2011 18:00 17,6 C 60 % 1007,8 hPa 0,0 l/m 23,3 km/h SW 9,7 C 12,4 C 13,0 km/h
18.09.2011 19:00 12,6 C 70 % 1008,0 hPa 0,0 l/m 6,5 km/h S 7,3 C 12,6 C 3,6 km/h
18.09.2011 20:00 11,8 C 75 % 1008,6 hPa 0,0 l/m 7,8 km/h NO 7,5 C 10,9 C 4,3 km/h
18.09.2011 21:00 11,1 C 79 % 1008,6 hPa 0,0 l/m 4,5 km/h N-NO 7,6 C 11,1 C 2,5 km/h
18.09.2011 22:00 9,8 C 83 % 1009,1 hPa 0,0 l/m 0,0 km/h SO 7,1 C 9,8 C 0,0 km/h
18.09.2011 23:00 9,5 C 83 % 1009,1 hPa 0,0 l/m 0,0 km/h S-SO 6,8 C 9,5 C 0,0 km/h
Min-Datum _ 16.09.11 14.09.11 18.09.11 - 12.09.11 - 16.09.11 18.09.11 12.09.11
_ Min-Zeit 07:30 17:30 06:30 - 00:30 - 07:30 16:30 00:30
Minimum _ 7,2 C 33 % 1004,1 hPa - 0,0 km/h - 4,7 C 6,4 C 0,0 km/h
Max-Datum _ 14.09.11 12.09.11 14.09.11 18.09.11 13.09.11 - 17.09.11 14.09.11 13.09.11
_ Max-Zeit 17:30 03:30 12:30 08:30 15:30 - 10:30 17:30 15:30
Maximum _ 30,8 C 84 % 1019,1 hPa 2,5 l/m 36,3 km/h
W-SW
- 18,7 C 30,8 C 20,2 km/h
W-SW
Durchschnitt _ 18,3 C 70 % 1014,2 hPa #7,1 l/m 7,1 km/h W-SW 12,3 C 17,3 C 4,0 km/h
www.sexauwetter.de